Not for real navigation | The accuracy of this data is not assured | See disclaimer for more information
ICAO NAME COUNTRY WIND Kt GUST Kt VIS TEMP/DEW BARO
CXCK Carmacks CS, Y. T. Canada 0 0 9999 -47/-53 29.92
CXCK 180600Z AUTO 00000KT M47/M53 RMK AO1 SOG 32 6009 SLP420 T14731528
CYMA Mayo Airport Canada 0 0 9999 -47/-52 30.42
CYMA 180600Z 00000KT 10SM CAVOK M47/M52 A3042 RMK VIS 4 E CLIMAT -44.7/-47.7/0.0 SOG59 SLP418
CXDK 0 0 9999 -43/-48 29.92
CXDK 180500Z AUTO 00000KT M43/M48 RMK AO1 SOG 25 3014 SLP460 T14261477
PAOR NORTHWAY AIRPORT AK United States 3 0 9999 -42/0 30.21
PAOR 180553Z 08003KT 7SM CAVOK M42/ A3021 RMK AO2 SLP358 4/015 T1422 11356 21428 58008 PNO $
CWMT Lac La Martre Canada 34 0 9999 -40/-44 29.92
CWMT 180600Z AUTO 00034KT M40/M44 RMK AO1 SOG 26 3003 SLP431 T13991437

Show more

Close Menu